sensor_id;sensor_type;location;lat;lon;timestamp;P1;durP1;ratioP1;P2;durP2;ratioP2
10880;SDS011;5493;48.884;8.338;2023-07-22T00:02:10;2.83;;;1.90;;
10880;SDS011;5493;48.884;8.338;2023-07-22T00:04:36;2.30;;;1.57;;
10880;SDS011;5493;48.884;8.338;2023-07-22T00:07:03;2.40;;;1.80;;
10880;SDS011;5493;48.884;8.338;2023-07-22T00:09:33;2.87;;;1.57;;
10880;SDS011;5493;48.884;8.338;2023-07-22T00:12:00;4.13;;;1.83;;
10880;SDS011;5493;48.884;8.338;2023-07-22T00:14:26;3.70;;;1.93;;
10880;SDS011;5493;48.884;8.338;2023-07-22T00:16:53;2.30;;;1.70;;
10880;SDS011;5493;48.884;8.338;2023-07-22T00:19:19;2.33;;;1.80;;
10880;SDS011;5493;48.884;8.338;2023-07-22T00:21:46;1.97;;;1.60;;
10880;SDS011;5493;48.884;8.338;2023-07-22T00:24:12;2.37;;;1.73;;
10880;SDS011;5493;48.884;8.338;2023-07-22T00:26:41;3.60;;;1.87;;
10880;SDS011;5493;48.884;8.338;2023-07-22T00:29:07;2.43;;;1.67;;
10880;SDS011;5493;48.884;8.338;2023-07-22T00:31:34;1.67;;;1.47;;
10880;SDS011;5493;48.884;8.338;2023-07-22T00:34:01;2.13;;;1.70;;
10880;SDS011;5493;48.884;8.338;2023-07-22T00:36:28;1.87;;;1.47;;
10880;SDS011;5493;48.884;8.338;2023-07-22T00:38:55;1.83;;;1.60;;
10880;SDS011;5493;48.884;8.338;2023-07-22T00:41:21;2.43;;;2.00;;
10880;SDS011;5493;48.884;8.338;2023-07-22T00:43:49;2.40;;;1.63;;
10880;SDS011;5493;48.884;8.338;2023-07-22T00:46:16;3.10;;;1.53;;
10880;SDS011;5493;48.884;8.338;2023-07-22T00:48:43;2.80;;;1.80;;
10880;SDS011;5493;48.884;8.338;2023-07-22T00:51:09;2.60;;;1.70;;
10880;SDS011;5493;48.884;8.338;2023-07-22T00:53:36;2.30;;;1.53;;
10880;SDS011;5493;48.884;8.338;2023-07-22T00:56:03;1.80;;;1.60;;
10880;SDS011;5493;48.884;8.338;2023-07-22T00:58:30;2.10;;;1.50;;
10880;SDS011;5493;48.884;8.338;2023-07-22T01:00:58;2.00;;;1.60;;
10880;SDS011;5493;48.884;8.338;2023-07-22T01:03:25;4.17;;;1.67;;
10880;SDS011;5493;48.884;8.338;2023-07-22T01:05:53;2.50;;;1.53;;
10880;SDS011;5493;48.884;8.338;2023-07-22T01:08:20;2.33;;;1.83;;
10880;SDS011;5493;48.884;8.338;2023-07-22T01:10:46;3.40;;;1.83;;
10880;SDS011;5493;48.884;8.338;2023-07-22T01:13:13;2.10;;;1.60;;
10880;SDS011;5493;48.884;8.338;2023-07-22T01:15:45;1.93;;;1.30;;
10880;SDS011;5493;48.884;8.338;2023-07-22T01:18:13;3.23;;;1.70;;
10880;SDS011;5493;48.884;8.338;2023-07-22T01:20:40;2.30;;;1.50;;
10880;SDS011;5493;48.884;8.338;2023-07-22T01:23:09;1.60;;;1.37;;
10880;SDS011;5493;48.884;8.338;2023-07-22T01:25:36;2.43;;;1.40;;
10880;SDS011;5493;48.884;8.338;2023-07-22T01:28:03;1.33;;;1.23;;
10880;SDS011;5493;48.884;8.338;2023-07-22T01:30:35;1.70;;;1.30;;
10880;SDS011;5493;48.884;8.338;2023-07-22T01:33:02;1.97;;;1.50;;
10880;SDS011;5493;48.884;8.338;2023-07-22T01:35:28;1.57;;;1.40;;
10880;SDS011;5493;48.884;8.338;2023-07-22T01:37:55;2.60;;;1.60;;
10880;SDS011;5493;48.884;8.338;2023-07-22T01:40:24;1.67;;;1.50;;
10880;SDS011;5493;48.884;8.338;2023-07-22T01:42:51;3.03;;;1.27;;
10880;SDS011;5493;48.884;8.338;2023-07-22T01:45:17;4.90;;;1.60;;
10880;SDS011;5493;48.884;8.338;2023-07-22T01:47:44;2.33;;;1.20;;
10880;SDS011;5493;48.884;8.338;2023-07-22T01:50:10;2.03;;;1.60;;
10880;SDS011;5493;48.884;8.338;2023-07-22T01:52:38;1.97;;;1.50;;
10880;SDS011;5493;48.884;8.338;2023-07-22T01:55:05;2.60;;;1.50;;
10880;SDS011;5493;48.884;8.338;2023-07-22T01:57:37;2.30;;;1.40;;
10880;SDS011;5493;48.884;8.338;2023-07-22T02:00:04;1.90;;;1.60;;
10880;SDS011;5493;48.884;8.338;2023-07-22T02:02:31;1.73;;;1.33;;
10880;SDS011;5493;48.884;8.338;2023-07-22T02:04:58;1.90;;;1.40;;
10880;SDS011;5493;48.884;8.338;2023-07-22T02:07:24;2.13;;;1.30;;
10880;SDS011;5493;48.884;8.338;2023-07-22T02:09:51;2.23;;;1.60;;
10880;SDS011;5493;48.884;8.338;2023-07-22T02:12:18;3.83;;;1.50;;
10880;SDS011;5493;48.884;8.338;2023-07-22T02:14:47;1.50;;;1.40;;
10880;SDS011;5493;48.884;8.338;2023-07-22T02:17:13;3.37;;;1.67;;
10880;SDS011;5493;48.884;8.338;2023-07-22T02:19:40;3.63;;;1.50;;
10880;SDS011;5493;48.884;8.338;2023-07-22T02:22:06;3.90;;;1.77;;
10880;SDS011;5493;48.884;8.338;2023-07-22T02:24:33;2.40;;;1.80;;
10880;SDS011;5493;48.884;8.338;2023-07-22T02:26:59;2.30;;;1.67;;
10880;SDS011;5493;48.884;8.338;2023-07-22T02:29:26;4.13;;;1.83;;
10880;SDS011;5493;48.884;8.338;2023-07-22T02:31:54;2.63;;;1.83;;
10880;SDS011;5493;48.884;8.338;2023-07-22T02:34:20;2.00;;;1.60;;
10880;SDS011;5493;48.884;8.338;2023-07-22T02:36:47;1.37;;;1.20;;
10880;SDS011;5493;48.884;8.338;2023-07-22T02:39:12;2.40;;;1.80;;
10880;SDS011;5493;48.884;8.338;2023-07-22T02:41:39;2.03;;;1.47;;
10880;SDS011;5493;48.884;8.338;2023-07-22T02:44:06;3.57;;;1.67;;
10880;SDS011;5493;48.884;8.338;2023-07-22T02:46:33;4.73;;;1.40;;
10880;SDS011;5493;48.884;8.338;2023-07-22T02:49:01;2.57;;;1.50;;
10880;SDS011;5493;48.884;8.338;2023-07-22T02:51:27;1.87;;;1.50;;
10880;SDS011;5493;48.884;8.338;2023-07-22T02:53:54;2.83;;;1.50;;
10880;SDS011;5493;48.884;8.338;2023-07-22T02:56:21;1.90;;;1.50;;
10880;SDS011;5493;48.884;8.338;2023-07-22T02:58:48;2.20;;;1.60;;
10880;SDS011;5493;48.884;8.338;2023-07-22T03:01:15;2.20;;;1.60;;
10880;SDS011;5493;48.884;8.338;2023-07-22T03:03:43;3.17;;;1.50;;
10880;SDS011;5493;48.884;8.338;2023-07-22T03:06:10;2.37;;;1.60;;
10880;SDS011;5493;48.884;8.338;2023-07-22T03:08:37;2.50;;;1.57;;
10880;SDS011;5493;48.884;8.338;2023-07-22T03:11:03;1.80;;;1.63;;
10880;SDS011;5493;48.884;8.338;2023-07-22T03:13:30;2.27;;;1.60;;
10880;SDS011;5493;48.884;8.338;2023-07-22T03:15:58;2.10;;;1.57;;
10880;SDS011;5493;48.884;8.338;2023-07-22T03:18:25;1.50;;;1.20;;
10880;SDS011;5493;48.884;8.338;2023-07-22T03:20:52;3.63;;;1.60;;
10880;SDS011;5493;48.884;8.338;2023-07-22T03:23:20;2.63;;;1.60;;
10880;SDS011;5493;48.884;8.338;2023-07-22T03:25:46;3.47;;;1.87;;
10880;SDS011;5493;48.884;8.338;2023-07-22T03:28:13;2.67;;;1.60;;
10880;SDS011;5493;48.884;8.338;2023-07-22T03:30:40;1.80;;;1.60;;
10880;SDS011;5493;48.884;8.338;2023-07-22T03:33:06;2.33;;;1.40;;
10880;SDS011;5493;48.884;8.338;2023-07-22T03:35:33;2.40;;;1.67;;
10880;SDS011;5493;48.884;8.338;2023-07-22T03:38:00;1.73;;;1.47;;
10880;SDS011;5493;48.884;8.338;2023-07-22T03:40:28;2.17;;;1.60;;
10880;SDS011;5493;48.884;8.338;2023-07-22T03:42:55;2.47;;;1.70;;
10880;SDS011;5493;48.884;8.338;2023-07-22T03:45:23;2.00;;;1.63;;
10880;SDS011;5493;48.884;8.338;2023-07-22T03:47:50;2.30;;;1.53;;
10880;SDS011;5493;48.884;8.338;2023-07-22T03:50:17;1.83;;;1.47;;
10880;SDS011;5493;48.884;8.338;2023-07-22T03:52:44;2.50;;;1.90;;
10880;SDS011;5493;48.884;8.338;2023-07-22T03:55:10;1.83;;;1.50;;
10880;SDS011;5493;48.884;8.338;2023-07-22T03:57:38;3.17;;;1.70;;
10880;SDS011;5493;48.884;8.338;2023-07-22T04:00:05;2.70;;;1.70;;
10880;SDS011;5493;48.884;8.338;2023-07-22T04:02:34;1.70;;;1.60;;
10880;SDS011;5493;48.884;8.338;2023-07-22T04:05:01;3.83;;;2.23;;
10880;SDS011;5493;48.884;8.338;2023-07-22T04:07:27;4.90;;;1.83;;
10880;SDS011;5493;48.884;8.338;2023-07-22T04:09:54;2.47;;;1.77;;
10880;SDS011;5493;48.884;8.338;2023-07-22T04:12:20;2.00;;;1.80;;
10880;SDS011;5493;48.884;8.338;2023-07-22T04:14:48;2.33;;;1.80;;
10880;SDS011;5493;48.884;8.338;2023-07-22T04:17:15;2.63;;;1.60;;
10880;SDS011;5493;48.884;8.338;2023-07-22T04:19:41;2.83;;;2.00;;
10880;SDS011;5493;48.884;8.338;2023-07-22T04:22:08;2.60;;;1.53;;
10880;SDS011;5493;48.884;8.338;2023-07-22T04:24:35;1.87;;;1.60;;
10880;SDS011;5493;48.884;8.338;2023-07-22T04:27:01;3.57;;;1.80;;
10880;SDS011;5493;48.884;8.338;2023-07-22T04:29:28;2.30;;;1.83;;
10880;SDS011;5493;48.884;8.338;2023-07-22T04:31:58;2.33;;;1.83;;
10880;SDS011;5493;48.884;8.338;2023-07-22T04:34:25;2.43;;;1.90;;
10880;SDS011;5493;48.884;8.338;2023-07-22T04:36:54;2.87;;;1.93;;
10880;SDS011;5493;48.884;8.338;2023-07-22T04:39:21;2.83;;;1.70;;
10880;SDS011;5493;48.884;8.338;2023-07-22T04:41:48;3.87;;;1.80;;
10880;SDS011;5493;48.884;8.338;2023-07-22T04:44:14;2.67;;;1.90;;
10880;SDS011;5493;48.884;8.338;2023-07-22T04:46:41;2.23;;;1.80;;
10880;SDS011;5493;48.884;8.338;2023-07-22T04:49:09;3.43;;;1.90;;
10880;SDS011;5493;48.884;8.338;2023-07-22T04:51:36;2.43;;;2.10;;
10880;SDS011;5493;48.884;8.338;2023-07-22T04:54:02;3.27;;;2.13;;
10880;SDS011;5493;48.884;8.338;2023-07-22T04:56:29;2.17;;;1.60;;
10880;SDS011;5493;48.884;8.338;2023-07-22T04:58:55;2.57;;;1.90;;
10880;SDS011;5493;48.884;8.338;2023-07-22T05:01:22;2.93;;;1.97;;
10880;SDS011;5493;48.884;8.338;2023-07-22T05:03:48;3.17;;;1.90;;
10880;SDS011;5493;48.884;8.338;2023-07-22T05:06:16;3.80;;;1.63;;
10880;SDS011;5493;48.884;8.338;2023-07-22T05:08:43;4.67;;;1.93;;
10880;SDS011;5493;48.884;8.338;2023-07-22T05:11:09;2.27;;;1.60;;
10880;SDS011;5493;48.884;8.338;2023-07-22T05:13:36;2.30;;;1.80;;
10880;SDS011;5493;48.884;8.338;2023-07-22T05:16:02;2.57;;;1.80;;
10880;SDS011;5493;48.884;8.338;2023-07-22T05:18:29;2.77;;;1.83;;
10880;SDS011;5493;48.884;8.338;2023-07-22T05:20:55;4.07;;;2.10;;
10880;SDS011;5493;48.884;8.338;2023-07-22T05:23:23;1.98;;;1.67;;
10880;SDS011;5493;48.884;8.338;2023-07-22T05:25:50;3.00;;;1.92;;
10880;SDS011;5493;48.884;8.338;2023-07-22T05:28:17;2.40;;;1.90;;
10880;SDS011;5493;48.884;8.338;2023-07-22T05:30:44;2.13;;;1.88;;
10880;SDS011;5493;48.884;8.338;2023-07-22T05:33:10;2.13;;;1.77;;
10880;SDS011;5493;48.884;8.338;2023-07-22T05:35:37;2.75;;;1.90;;
10880;SDS011;5493;48.884;8.338;2023-07-22T05:38:03;4.10;;;2.00;;
10880;SDS011;5493;48.884;8.338;2023-07-22T05:40:32;2.65;;;1.80;;
10880;SDS011;5493;48.884;8.338;2023-07-22T05:42:58;2.83;;;1.92;;
10880;SDS011;5493;48.884;8.338;2023-07-22T05:45:26;1.67;;;1.40;;
10880;SDS011;5493;48.884;8.338;2023-07-22T05:47:52;2.88;;;1.95;;
10880;SDS011;5493;48.884;8.338;2023-07-22T05:50:19;3.15;;;1.55;;
10880;SDS011;5493;48.884;8.338;2023-07-22T05:52:45;2.17;;;1.67;;
10880;SDS011;5493;48.884;8.338;2023-07-22T05:55:12;2.22;;;1.70;;
10880;SDS011;5493;48.884;8.338;2023-07-22T05:57:41;2.20;;;1.80;;
10880;SDS011;5493;48.884;8.338;2023-07-22T06:00:08;3.03;;;1.95;;
10880;SDS011;5493;48.884;8.338;2023-07-22T06:02:37;3.90;;;1.90;;
10880;SDS011;5493;48.884;8.338;2023-07-22T06:05:04;5.30;;;1.98;;
10880;SDS011;5493;48.884;8.338;2023-07-22T06:07:31;3.00;;;1.95;;
10880;SDS011;5493;48.884;8.338;2023-07-22T06:09:57;2.67;;;1.90;;
10880;SDS011;5493;48.884;8.338;2023-07-22T06:12:24;2.65;;;1.88;;
10880;SDS011;5493;48.884;8.338;2023-07-22T06:14:52;2.78;;;2.00;;
10880;SDS011;5493;48.884;8.338;2023-07-22T06:17:18;5.55;;;1.80;;
10880;SDS011;5493;48.884;8.338;2023-07-22T06:19:45;2.33;;;1.83;;
10880;SDS011;5493;48.884;8.338;2023-07-22T06:22:12;2.55;;;1.95;;
10880;SDS011;5493;48.884;8.338;2023-07-22T06:24:38;2.65;;;2.00;;
10880;SDS011;5493;48.884;8.338;2023-07-22T06:27:05;2.75;;;2.00;;
10880;SDS011;5493;48.884;8.338;2023-07-22T06:29:31;4.25;;;2.25;;
10880;SDS011;5493;48.884;8.338;2023-07-22T06:31:59;2.50;;;1.92;;
10880;SDS011;5493;48.884;8.338;2023-07-22T06:34:26;2.75;;;1.80;;
10880;SDS011;5493;48.884;8.338;2023-07-22T06:36:52;2.28;;;1.77;;
10880;SDS011;5493;48.884;8.338;2023-07-22T06:39:19;5.63;;;2.17;;
10880;SDS011;5493;48.884;8.338;2023-07-22T06:41:45;4.97;;;2.22;;
10880;SDS011;5493;48.884;8.338;2023-07-22T06:44:12;2.85;;;1.90;;
10880;SDS011;5493;48.884;8.338;2023-07-22T06:46:38;3.70;;;1.98;;
10880;SDS011;5493;48.884;8.338;2023-07-22T06:49:07;3.83;;;2.08;;
10880;SDS011;5493;48.884;8.338;2023-07-22T06:51:33;2.10;;;1.90;;
10880;SDS011;5493;48.884;8.338;2023-07-22T06:54:01;2.80;;;1.80;;
10880;SDS011;5493;48.884;8.338;2023-07-22T06:56:28;2.92;;;1.80;;
10880;SDS011;5493;48.884;8.338;2023-07-22T06:58:55;4.22;;;2.13;;
10880;SDS011;5493;48.884;8.338;2023-07-22T07:01:21;1.90;;;1.70;;
10880;SDS011;5493;48.884;8.338;2023-07-22T07:03:48;2.88;;;1.83;;
10880;SDS011;5493;48.884;8.338;2023-07-22T07:06:16;2.13;;;1.90;;
10880;SDS011;5493;48.884;8.338;2023-07-22T07:08:43;3.90;;;1.80;;
10880;SDS011;5493;48.884;8.338;2023-07-22T07:11:09;2.78;;;2.00;;
10880;SDS011;5493;48.884;8.338;2023-07-22T07:13:36;2.83;;;1.70;;
10880;SDS011;5493;48.884;8.338;2023-07-22T07:16:21;2.95;;;1.70;;
10880;SDS011;5493;48.884;8.338;2023-07-22T07:18:49;3.47;;;1.77;;
10880;SDS011;5493;48.884;8.338;2023-07-22T07:21:17;2.65;;;1.85;;
10880;SDS011;5493;48.884;8.338;2023-07-22T07:23:44;1.73;;;1.50;;
10880;SDS011;5493;48.884;8.338;2023-07-22T07:26:11;2.00;;;1.80;;
10880;SDS011;5493;48.884;8.338;2023-07-22T07:28:37;3.30;;;1.80;;
10880;SDS011;5493;48.884;8.338;2023-07-22T07:31:04;2.20;;;1.85;;
10880;SDS011;5493;48.884;8.338;2023-07-22T07:33:31;2.58;;;1.50;;
10880;SDS011;5493;48.884;8.338;2023-07-22T07:35:57;2.72;;;1.65;;
10880;SDS011;5493;48.884;8.338;2023-07-22T07:38:25;2.85;;;1.90;;
10880;SDS011;5493;48.884;8.338;2023-07-22T07:40:55;2.33;;;1.70;;
10880;SDS011;5493;48.884;8.338;2023-07-22T07:43:22;2.45;;;1.60;;
10880;SDS011;5493;48.884;8.338;2023-07-22T07:45:48;1.45;;;1.35;;
10880;SDS011;5493;48.884;8.338;2023-07-22T07:48:15;2.83;;;1.83;;
10880;SDS011;5493;48.884;8.338;2023-07-22T07:50:42;2.08;;;1.58;;
10880;SDS011;5493;48.884;8.338;2023-07-22T07:53:09;4.32;;;1.85;;
10880;SDS011;5493;48.884;8.338;2023-07-22T07:55:37;1.98;;;1.63;;
10880;SDS011;5493;48.884;8.338;2023-07-22T07:58:03;2.60;;;1.50;;
10880;SDS011;5493;48.884;8.338;2023-07-22T08:00:30;2.42;;;1.58;;
10880;SDS011;5493;48.884;8.338;2023-07-22T08:02:56;2.92;;;1.92;;
10880;SDS011;5493;48.884;8.338;2023-07-22T08:05:23;3.22;;;1.77;;
10880;SDS011;5493;48.884;8.338;2023-07-22T08:07:49;2.95;;;1.70;;
10880;SDS011;5493;48.884;8.338;2023-07-22T08:10:16;2.80;;;1.70;;
10880;SDS011;5493;48.884;8.338;2023-07-22T08:12:44;1.75;;;1.52;;
10880;SDS011;5493;48.884;8.338;2023-07-22T08:15:10;1.83;;;1.60;;
10880;SDS011;5493;48.884;8.338;2023-07-22T08:17:37;2.42;;;1.70;;
10880;SDS011;5493;48.884;8.338;2023-07-22T08:20:04;1.98;;;1.60;;
10880;SDS011;5493;48.884;8.338;2023-07-22T08:22:33;2.05;;;1.73;;
10880;SDS011;5493;48.884;8.338;2023-07-22T08:24:59;2.42;;;1.80;;
10880;SDS011;5493;48.884;8.338;2023-07-22T08:27:26;2.22;;;1.83;;
10880;SDS011;5493;48.884;8.338;2023-07-22T08:29:54;3.08;;;1.60;;
10880;SDS011;5493;48.884;8.338;2023-07-22T08:32:20;3.03;;;1.55;;
10880;SDS011;5493;48.884;8.338;2023-07-22T08:34:47;2.83;;;1.75;;
10880;SDS011;5493;48.884;8.338;2023-07-22T08:37:13;2.75;;;1.63;;
10880;SDS011;5493;48.884;8.338;2023-07-22T08:39:40;2.53;;;1.48;;
10880;SDS011;5493;48.884;8.338;2023-07-22T08:42:06;2.28;;;1.70;;
10880;SDS011;5493;48.884;8.338;2023-07-22T08:44:33;1.63;;;1.50;;
10880;SDS011;5493;48.884;8.338;2023-07-22T08:47:07;2.00;;;1.75;;
10880;SDS011;5493;48.884;8.338;2023-07-22T08:49:37;2.33;;;1.70;;
10880;SDS011;5493;48.884;8.338;2023-07-22T08:52:06;1.65;;;1.40;;
10880;SDS011;5493;48.884;8.338;2023-07-22T08:54:33;2.28;;;1.58;;
10880;SDS011;5493;48.884;8.338;2023-07-22T08:57:01;2.33;;;1.50;;
10880;SDS011;5493;48.884;8.338;2023-07-22T08:59:28;1.75;;;1.40;;
10880;SDS011;5493;48.884;8.338;2023-07-22T09:01:55;2.83;;;1.40;;
10880;SDS011;5493;48.884;8.338;2023-07-22T09:04:24;2.85;;;1.77;;
10880;SDS011;5493;48.884;8.338;2023-07-22T09:06:50;1.60;;;1.50;;
10880;SDS011;5493;48.884;8.338;2023-07-22T09:09:18;2.80;;;1.70;;
10880;SDS011;5493;48.884;8.338;2023-07-22T09:11:45;3.28;;;1.50;;
10880;SDS011;5493;48.884;8.338;2023-07-22T09:14:13;1.88;;;1.60;;
10880;SDS011;5493;48.884;8.338;2023-07-22T09:16:39;3.63;;;1.50;;
10880;SDS011;5493;48.884;8.338;2023-07-22T09:19:07;2.33;;;1.50;;
10880;SDS011;5493;48.884;8.338;2023-07-22T09:21:35;2.35;;;1.52;;
10880;SDS011;5493;48.884;8.338;2023-07-22T09:24:02;2.88;;;1.70;;
10880;SDS011;5493;48.884;8.338;2023-07-22T09:26:45;1.52;;;1.40;;
10880;SDS011;5493;48.884;8.338;2023-07-22T09:29:11;1.33;;;1.20;;
10880;SDS011;5493;48.884;8.338;2023-07-22T09:31:47;1.30;;;1.20;;
10880;SDS011;5493;48.884;8.338;2023-07-22T09:34:15;3.95;;;1.50;;
10880;SDS011;5493;48.884;8.338;2023-07-22T09:36:52;2.40;;;1.63;;
10880;SDS011;5493;48.884;8.338;2023-07-22T09:39:20;3.15;;;1.50;;
10880;SDS011;5493;48.884;8.338;2023-07-22T09:41:48;1.40;;;1.30;;
10880;SDS011;5493;48.884;8.338;2023-07-22T09:44:15;3.05;;;1.40;;
10880;SDS011;5493;48.884;8.338;2023-07-22T09:46:41;2.60;;;1.70;;
10880;SDS011;5493;48.884;8.338;2023-07-22T09:49:12;2.00;;;1.50;;
10880;SDS011;5493;48.884;8.338;2023-07-22T09:51:39;4.53;;;1.60;;
10880;SDS011;5493;48.884;8.338;2023-07-22T09:54:07;1.50;;;1.40;;
10880;SDS011;5493;48.884;8.338;2023-07-22T09:56:42;2.05;;;1.40;;
10880;SDS011;5493;48.884;8.338;2023-07-22T09:59:10;2.80;;;1.63;;
10880;SDS011;5493;48.884;8.338;2023-07-22T10:01:37;1.50;;;1.40;;
10880;SDS011;5493;48.884;8.338;2023-07-22T10:04:05;2.35;;;1.50;;
10880;SDS011;5493;48.884;8.338;2023-07-22T10:06:32;1.80;;;1.48;;
10880;SDS011;5493;48.884;8.338;2023-07-22T10:09:00;1.60;;;1.30;;
10880;SDS011;5493;48.884;8.338;2023-07-22T10:11:30;1.75;;;1.20;;
10880;SDS011;5493;48.884;8.338;2023-07-22T10:13:57;1.27;;;1.17;;
10880;SDS011;5493;48.884;8.338;2023-07-22T10:16:25;1.25;;;1.15;;
10880;SDS011;5493;48.884;8.338;2023-07-22T10:18:51;2.05;;;1.50;;
10880;SDS011;5493;48.884;8.338;2023-07-22T10:21:20;4.43;;;1.10;;
10880;SDS011;5493;48.884;8.338;2023-07-22T10:23:47;1.30;;;1.20;;
10880;SDS011;5493;48.884;8.338;2023-07-22T10:26:14;1.40;;;1.30;;
10880;SDS011;5493;48.884;8.338;2023-07-22T10:28:44;2.25;;;1.17;;
10880;SDS011;5493;48.884;8.338;2023-07-22T10:31:11;1.38;;;1.23;;
10880;SDS011;5493;48.884;8.338;2023-07-22T10:33:38;3.45;;;1.50;;
10880;SDS011;5493;48.884;8.338;2023-07-22T10:36:06;2.13;;;1.25;;
10880;SDS011;5493;48.884;8.338;2023-07-22T10:38:34;2.05;;;1.35;;
10880;SDS011;5493;48.884;8.338;2023-07-22T10:41:01;2.10;;;1.40;;
10880;SDS011;5493;48.884;8.338;2023-07-22T10:43:37;1.45;;;1.17;;
10880;SDS011;5493;48.884;8.338;2023-07-22T10:46:06;1.50;;;1.30;;
10880;SDS011;5493;48.884;8.338;2023-07-22T10:48:35;1.60;;;1.35;;
10880;SDS011;5493;48.884;8.338;2023-07-22T10:51:05;2.53;;;1.40;;
10880;SDS011;5493;48.884;8.338;2023-07-22T10:53:37;1.55;;;1.40;;
10880;SDS011;5493;48.884;8.338;2023-07-22T10:56:13;1.60;;;1.50;;
10880;SDS011;5493;48.884;8.338;2023-07-22T10:58:57;1.65;;;1.40;;
10880;SDS011;5493;48.884;8.338;2023-07-22T11:01:34;1.90;;;1.25;;
10880;SDS011;5493;48.884;8.338;2023-07-22T11:04:02;1.48;;;1.33;;
10880;SDS011;5493;48.884;8.338;2023-07-22T11:06:30;1.45;;;1.30;;
10880;SDS011;5493;48.884;8.338;2023-07-22T11:08:57;1.92;;;1.40;;
10880;SDS011;5493;48.884;8.338;2023-07-22T11:11:33;1.48;;;1.38;;
10880;SDS011;5493;48.884;8.338;2023-07-22T11:14:12;1.40;;;1.27;;
10880;SDS011;5493;48.884;8.338;2023-07-22T11:16:40;2.28;;;1.30;;
10880;SDS011;5493;48.884;8.338;2023-07-22T11:19:08;1.92;;;1.50;;
10880;SDS011;5493;48.884;8.338;2023-07-22T11:21:34;1.50;;;1.25;;
10880;SDS011;5493;48.884;8.338;2023-07-22T11:24:02;2.25;;;1.13;;
10880;SDS011;5493;48.884;8.338;2023-07-22T11:26:29;1.30;;;1.20;;
10880;SDS011;5493;48.884;8.338;2023-07-22T11:28:56;2.25;;;1.38;;
10880;SDS011;5493;48.884;8.338;2023-07-22T11:31:29;1.63;;;1.20;;
10880;SDS011;5493;48.884;8.338;2023-07-22T11:33:58;3.50;;;1.10;;
10880;SDS011;5493;48.884;8.338;2023-07-22T11:36:25;2.15;;;1.30;;
10880;SDS011;5493;48.884;8.338;2023-07-22T11:38:52;3.17;;;1.30;;
10880;SDS011;5493;48.884;8.338;2023-07-22T11:41:19;1.35;;;1.20;;
10880;SDS011;5493;48.884;8.338;2023-07-22T11:43:46;2.20;;;1.40;;
10880;SDS011;5493;48.884;8.338;2023-07-22T11:46:13;1.23;;;1.10;;
10880;SDS011;5493;48.884;8.338;2023-07-22T11:48:40;2.15;;;1.30;;
10880;SDS011;5493;48.884;8.338;2023-07-22T11:51:17;1.38;;;1.27;;
10880;SDS011;5493;48.884;8.338;2023-07-22T11:53:46;2.85;;;1.40;;
10880;SDS011;5493;48.884;8.338;2023-07-22T11:56:17;1.63;;;1.30;;
10880;SDS011;5493;48.884;8.338;2023-07-22T11:58:48;1.75;;;1.40;;
10880;SDS011;5493;48.884;8.338;2023-07-22T12:01:15;1.88;;;1.50;;
10880;SDS011;5493;48.884;8.338;2023-07-22T12:03:41;1.42;;;1.30;;
10880;SDS011;5493;48.884;8.338;2023-07-22T12:06:08;1.40;;;1.30;;
10880;SDS011;5493;48.884;8.338;2023-07-22T12:08:37;2.17;;;1.20;;
10880;SDS011;5493;48.884;8.338;2023-07-22T12:11:15;2.20;;;1.30;;
10880;SDS011;5493;48.884;8.338;2023-07-22T12:13:42;2.63;;;1.40;;
10880;SDS011;5493;48.884;8.338;2023-07-22T12:16:11;0.98;;;0.93;;
10880;SDS011;5493;48.884;8.338;2023-07-22T12:18:41;4.25;;;1.50;;
10880;SDS011;5493;48.884;8.338;2023-07-22T12:21:08;1.50;;;1.40;;
10880;SDS011;5493;48.884;8.338;2023-07-22T12:23:36;1.75;;;1.33;;
10880;SDS011;5493;48.884;8.338;2023-07-22T12:26:03;1.70;;;1.40;;
10880;SDS011;5493;48.884;8.338;2023-07-22T12:28:30;2.72;;;1.30;;
10880;SDS011;5493;48.884;8.338;2023-07-22T12:30:57;3.28;;;1.30;;
10880;SDS011;5493;48.884;8.338;2023-07-22T12:33:23;2.55;;;1.20;;
10880;SDS011;5493;48.884;8.338;2023-07-22T12:35:50;2.40;;;1.08;;
10880;SDS011;5493;48.884;8.338;2023-07-22T12:38:17;1.95;;;1.50;;
10880;SDS011;5493;48.884;8.338;2023-07-22T12:40:45;1.42;;;1.33;;
10880;SDS011;5493;48.884;8.338;2023-07-22T12:43:12;1.60;;;1.30;;
10880;SDS011;5493;48.884;8.338;2023-07-22T12:45:39;2.63;;;1.40;;
10880;SDS011;5493;48.884;8.338;2023-07-22T12:48:05;1.20;;;1.00;;
10880;SDS011;5493;48.884;8.338;2023-07-22T12:50:32;1.60;;;1.38;;
10880;SDS011;5493;48.884;8.338;2023-07-22T12:52:59;2.30;;;1.30;;
10880;SDS011;5493;48.884;8.338;2023-07-22T12:55:26;1.50;;;1.20;;
10880;SDS011;5493;48.884;8.338;2023-07-22T12:57:54;1.73;;;1.42;;
10880;SDS011;5493;48.884;8.338;2023-07-22T13:00:20;1.83;;;1.42;;
10880;SDS011;5493;48.884;8.338;2023-07-22T13:02:47;1.83;;;1.25;;
10880;SDS011;5493;48.884;8.338;2023-07-22T13:05:14;1.73;;;1.25;;
10880;SDS011;5493;48.884;8.338;2023-07-22T13:07:41;1.65;;;1.40;;
10880;SDS011;5493;48.884;8.338;2023-07-22T13:10:08;1.33;;;1.13;;
10880;SDS011;5493;48.884;8.338;2023-07-22T13:12:37;1.83;;;1.45;;
10880;SDS011;5493;48.884;8.338;2023-07-22T13:15:06;2.88;;;1.40;;
10880;SDS011;5493;48.884;8.338;2023-07-22T13:17:33;3.45;;;1.27;;
10880;SDS011;5493;48.884;8.338;2023-07-22T13:19:59;1.88;;;1.02;;
10880;SDS011;5493;48.884;8.338;2023-07-22T13:22:26;1.30;;;1.20;;
10880;SDS011;5493;48.884;8.338;2023-07-22T13:24:52;1.58;;;1.40;;
10880;SDS011;5493;48.884;8.338;2023-07-22T13:27:19;2.05;;;1.30;;
10880;SDS011;5493;48.884;8.338;2023-07-22T13:29:45;1.48;;;1.35;;
10880;SDS011;5493;48.884;8.338;2023-07-22T13:32:13;2.20;;;1.27;;
10880;SDS011;5493;48.884;8.338;2023-07-22T13:34:39;2.88;;;1.63;;
10880;SDS011;5493;48.884;8.338;2023-07-22T13:37:06;1.60;;;1.50;;
10880;SDS011;5493;48.884;8.338;2023-07-22T13:39:32;1.60;;;1.50;;
10880;SDS011;5493;48.884;8.338;2023-07-22T13:41:59;1.90;;;1.60;;
10880;SDS011;5493;48.884;8.338;2023-07-22T13:44:26;2.17;;;1.38;;
10880;SDS011;5493;48.884;8.338;2023-07-22T13:46:52;4.13;;;1.40;;
10880;SDS011;5493;48.884;8.338;2023-07-22T13:49:20;1.30;;;1.20;;
10880;SDS011;5493;48.884;8.338;2023-07-22T13:51:46;1.65;;;1.20;;
10880;SDS011;5493;48.884;8.338;2023-07-22T13:54:13;1.70;;;1.40;;
10880;SDS011;5493;48.884;8.338;2023-07-22T13:56:41;2.22;;;1.33;;
10880;SDS011;5493;48.884;8.338;2023-07-22T13:59:08;3.88;;;1.52;;
10880;SDS011;5493;48.884;8.338;2023-07-22T14:01:35;1.40;;;1.30;;
10880;SDS011;5493;48.884;8.338;2023-07-22T14:04:01;1.75;;;1.40;;
10880;SDS011;5493;48.884;8.338;2023-07-22T14:06:29;1.60;;;1.50;;
10880;SDS011;5493;48.884;8.338;2023-07-22T14:08:57;1.95;;;1.50;;
10880;SDS011;5493;48.884;8.338;2023-07-22T14:11:23;1.50;;;1.30;;
10880;SDS011;5493;48.884;8.338;2023-07-22T14:13:50;1.83;;;1.50;;
10880;SDS011;5493;48.884;8.338;2023-07-22T14:16:17;1.95;;;1.50;;
10880;SDS011;5493;48.884;8.338;2023-07-22T14:18:43;2.65;;;1.65;;
10880;SDS011;5493;48.884;8.338;2023-07-22T14:21:10;1.73;;;1.63;;
10880;SDS011;5493;48.884;8.338;2023-07-22T14:23:38;1.67;;;1.48;;
10880;SDS011;5493;48.884;8.338;2023-07-22T14:26:05;1.85;;;1.50;;
10880;SDS011;5493;48.884;8.338;2023-07-22T14:28:32;1.65;;;1.45;;
10880;SDS011;5493;48.884;8.338;2023-07-22T14:30:59;1.50;;;1.40;;
10880;SDS011;5493;48.884;8.338;2023-07-22T14:33:25;1.42;;;1.33;;
10880;SDS011;5493;48.884;8.338;2023-07-22T14:35:52;3.38;;;1.50;;
10880;SDS011;5493;48.884;8.338;2023-07-22T14:38:18;3.42;;;1.77;;
10880;SDS011;5493;48.884;8.338;2023-07-22T14:40:46;6.53;;;1.83;;
10880;SDS011;5493;48.884;8.338;2023-07-22T14:43:13;6.90;;;1.83;;
10880;SDS011;5493;48.884;8.338;2023-07-22T14:45:39;2.58;;;1.77;;
10880;SDS011;5493;48.884;8.338;2023-07-22T14:48:06;2.03;;;1.42;;
10880;SDS011;5493;48.884;8.338;2023-07-22T14:50:32;2.28;;;1.70;;
10880;SDS011;5493;48.884;8.338;2023-07-22T14:52:59;2.70;;;1.60;;
10880;SDS011;5493;48.884;8.338;2023-07-22T14:55:26;2.65;;;1.58;;
10880;SDS011;5493;48.884;8.338;2023-07-22T14:57:54;2.45;;;1.80;;
10880;SDS011;5493;48.884;8.338;2023-07-22T15:00:20;1.77;;;1.58;;
10880;SDS011;5493;48.884;8.338;2023-07-22T15:02:47;3.97;;;1.85;;